sensor_id;sensor_type;location;lat;lon;timestamp;P1;durP1;ratioP1;P2;durP2;ratioP2
65853;SDS011;52627;48.838;2.402;2024-02-21T00:00:15;19.80;;;7.50;;
65853;SDS011;52627;48.838;2.402;2024-02-21T00:02:44;15.20;;;7.90;;
65853;SDS011;52627;48.838;2.402;2024-02-21T00:05:11;13.80;;;7.30;;
65853;SDS011;52627;48.838;2.402;2024-02-21T00:07:39;17.10;;;7.80;;
65853;SDS011;52627;48.838;2.402;2024-02-21T00:10:07;19.50;;;8.00;;
65853;SDS011;52627;48.838;2.402;2024-02-21T00:12:36;18.60;;;7.40;;
65853;SDS011;52627;48.838;2.402;2024-02-21T00:15:04;16.80;;;7.70;;
65853;SDS011;52627;48.838;2.402;2024-02-21T00:17:32;17.80;;;8.40;;
65853;SDS011;52627;48.838;2.402;2024-02-21T00:19:59;16.10;;;8.10;;
65853;SDS011;52627;48.838;2.402;2024-02-21T00:22:27;18.00;;;7.60;;
65853;SDS011;52627;48.838;2.402;2024-02-21T00:24:58;16.60;;;8.70;;
65853;SDS011;52627;48.838;2.402;2024-02-21T00:27:26;15.10;;;7.70;;
65853;SDS011;52627;48.838;2.402;2024-02-21T00:29:54;19.70;;;8.80;;
65853;SDS011;52627;48.838;2.402;2024-02-21T00:32:21;19.10;;;8.20;;
65853;SDS011;52627;48.838;2.402;2024-02-21T00:34:49;17.20;;;7.50;;
65853;SDS011;52627;48.838;2.402;2024-02-21T00:37:16;17.80;;;7.40;;
65853;SDS011;52627;48.838;2.402;2024-02-21T00:39:44;18.70;;;8.60;;
65853;SDS011;52627;48.838;2.402;2024-02-21T00:42:11;20.70;;;8.30;;
65853;SDS011;52627;48.838;2.402;2024-02-21T00:44:39;16.80;;;7.90;;
65853;SDS011;52627;48.838;2.402;2024-02-21T00:47:06;20.00;;;8.40;;
65853;SDS011;52627;48.838;2.402;2024-02-21T00:49:34;18.90;;;8.70;;
65853;SDS011;52627;48.838;2.402;2024-02-21T00:52:01;18.00;;;8.40;;
65853;SDS011;52627;48.838;2.402;2024-02-21T00:54:29;20.40;;;8.10;;
65853;SDS011;52627;48.838;2.402;2024-02-21T00:57:13;16.60;;;8.00;;
65853;SDS011;52627;48.838;2.402;2024-02-21T00:59:41;17.60;;;7.60;;
65853;SDS011;52627;48.838;2.402;2024-02-21T01:02:08;14.20;;;7.40;;
65853;SDS011;52627;48.838;2.402;2024-02-21T01:04:36;16.50;;;7.60;;
65853;SDS011;52627;48.838;2.402;2024-02-21T01:07:04;18.00;;;7.80;;
65853;SDS011;52627;48.838;2.402;2024-02-21T01:09:31;15.00;;;7.50;;
65853;SDS011;52627;48.838;2.402;2024-02-21T01:11:59;16.00;;;7.70;;
65853;SDS011;52627;48.838;2.402;2024-02-21T01:14:26;26.60;;;8.40;;
65853;SDS011;52627;48.838;2.402;2024-02-21T01:16:55;17.10;;;7.80;;
65853;SDS011;52627;48.838;2.402;2024-02-21T01:19:22;21.90;;;7.20;;
65853;SDS011;52627;48.838;2.402;2024-02-21T01:21:50;17.00;;;7.60;;
65853;SDS011;52627;48.838;2.402;2024-02-21T01:24:18;22.30;;;7.40;;
65853;SDS011;52627;48.838;2.402;2024-02-21T01:26:45;15.00;;;6.80;;
65853;SDS011;52627;48.838;2.402;2024-02-21T01:29:13;17.20;;;7.80;;
65853;SDS011;52627;48.838;2.402;2024-02-21T01:31:41;20.50;;;7.50;;
65853;SDS011;52627;48.838;2.402;2024-02-21T01:34:08;16.20;;;7.50;;
65853;SDS011;52627;48.838;2.402;2024-02-21T01:36:37;14.80;;;7.90;;
65853;SDS011;52627;48.838;2.402;2024-02-21T01:39:04;17.40;;;7.40;;
65853;SDS011;52627;48.838;2.402;2024-02-21T01:41:32;16.60;;;7.50;;
65853;SDS011;52627;48.838;2.402;2024-02-21T01:43:59;16.90;;;7.70;;
65853;SDS011;52627;48.838;2.402;2024-02-21T01:46:27;15.80;;;7.40;;
65853;SDS011;52627;48.838;2.402;2024-02-21T01:48:58;18.30;;;6.60;;
65853;SDS011;52627;48.838;2.402;2024-02-21T01:51:27;16.70;;;6.90;;
65853;SDS011;52627;48.838;2.402;2024-02-21T01:53:56;18.40;;;7.20;;
65853;SDS011;52627;48.838;2.402;2024-02-21T01:56:24;13.60;;;6.80;;
65853;SDS011;52627;48.838;2.402;2024-02-21T01:58:52;16.30;;;7.40;;
65853;SDS011;52627;48.838;2.402;2024-02-21T02:01:20;15.10;;;7.40;;
65853;SDS011;52627;48.838;2.402;2024-02-21T02:03:49;17.50;;;7.80;;
65853;SDS011;52627;48.838;2.402;2024-02-21T02:06:17;15.50;;;7.50;;
65853;SDS011;52627;48.838;2.402;2024-02-21T02:08:44;21.20;;;7.90;;
65853;SDS011;52627;48.838;2.402;2024-02-21T02:11:13;14.60;;;7.60;;
65853;SDS011;52627;48.838;2.402;2024-02-21T02:13:42;16.50;;;7.70;;
65853;SDS011;52627;48.838;2.402;2024-02-21T02:16:10;18.50;;;8.10;;
65853;SDS011;52627;48.838;2.402;2024-02-21T02:18:37;16.60;;;7.90;;
65853;SDS011;52627;48.838;2.402;2024-02-21T02:21:13;14.00;;;7.20;;
65853;SDS011;52627;48.838;2.402;2024-02-21T02:24:07;15.70;;;7.20;;
65853;SDS011;52627;48.838;2.402;2024-02-21T02:26:35;14.00;;;7.00;;
65853;SDS011;52627;48.838;2.402;2024-02-21T02:29:02;16.30;;;7.60;;
65853;SDS011;52627;48.838;2.402;2024-02-21T02:31:30;22.00;;;8.60;;
65853;SDS011;52627;48.838;2.402;2024-02-21T02:33:57;17.00;;;7.30;;
65853;SDS011;52627;48.838;2.402;2024-02-21T02:36:25;14.20;;;7.20;;
65853;SDS011;52627;48.838;2.402;2024-02-21T02:38:53;19.30;;;8.20;;
65853;SDS011;52627;48.838;2.402;2024-02-21T02:41:20;16.70;;;7.30;;
65853;SDS011;52627;48.838;2.402;2024-02-21T02:43:47;17.50;;;7.20;;
65853;SDS011;52627;48.838;2.402;2024-02-21T02:46:15;13.80;;;7.50;;
65853;SDS011;52627;48.838;2.402;2024-02-21T02:48:42;15.00;;;7.30;;
65853;SDS011;52627;48.838;2.402;2024-02-21T02:51:10;16.30;;;7.20;;
65853;SDS011;52627;48.838;2.402;2024-02-21T02:53:38;21.90;;;7.40;;
65853;SDS011;52627;48.838;2.402;2024-02-21T02:56:05;16.10;;;8.20;;
65853;SDS011;52627;48.838;2.402;2024-02-21T02:58:33;15.50;;;7.70;;
65853;SDS011;52627;48.838;2.402;2024-02-21T03:01:02;18.90;;;8.10;;
65853;SDS011;52627;48.838;2.402;2024-02-21T03:03:31;14.90;;;7.30;;
65853;SDS011;52627;48.838;2.402;2024-02-21T03:05:59;18.80;;;7.50;;
65853;SDS011;52627;48.838;2.402;2024-02-21T03:08:26;17.40;;;7.00;;
65853;SDS011;52627;48.838;2.402;2024-02-21T03:10:54;15.50;;;7.60;;
65853;SDS011;52627;48.838;2.402;2024-02-21T03:13:21;18.10;;;7.60;;
65853;SDS011;52627;48.838;2.402;2024-02-21T03:15:49;13.40;;;7.40;;
65853;SDS011;52627;48.838;2.402;2024-02-21T03:18:16;16.40;;;7.80;;
65853;SDS011;52627;48.838;2.402;2024-02-21T03:20:44;16.90;;;7.10;;
65853;SDS011;52627;48.838;2.402;2024-02-21T03:23:11;16.60;;;8.10;;
65853;SDS011;52627;48.838;2.402;2024-02-21T03:25:39;16.80;;;7.80;;
65853;SDS011;52627;48.838;2.402;2024-02-21T03:28:06;15.50;;;7.80;;
65853;SDS011;52627;48.838;2.402;2024-02-21T03:30:34;17.90;;;7.50;;
65853;SDS011;52627;48.838;2.402;2024-02-21T03:33:02;18.00;;;7.80;;
65853;SDS011;52627;48.838;2.402;2024-02-21T03:35:30;12.50;;;7.10;;
65853;SDS011;52627;48.838;2.402;2024-02-21T03:37:58;14.10;;;7.50;;
65853;SDS011;52627;48.838;2.402;2024-02-21T03:40:25;16.70;;;7.70;;
65853;SDS011;52627;48.838;2.402;2024-02-21T03:42:53;14.80;;;7.20;;
65853;SDS011;52627;48.838;2.402;2024-02-21T03:45:20;15.90;;;7.20;;
65853;SDS011;52627;48.838;2.402;2024-02-21T03:47:48;17.00;;;7.80;;
65853;SDS011;52627;48.838;2.402;2024-02-21T03:50:15;16.60;;;7.30;;
65853;SDS011;52627;48.838;2.402;2024-02-21T03:52:43;13.80;;;7.00;;
65853;SDS011;52627;48.838;2.402;2024-02-21T03:55:10;18.50;;;7.50;;
65853;SDS011;52627;48.838;2.402;2024-02-21T03:57:38;15.20;;;7.00;;
65853;SDS011;52627;48.838;2.402;2024-02-21T04:00:06;15.70;;;7.50;;
65853;SDS011;52627;48.838;2.402;2024-02-21T04:02:38;15.30;;;7.90;;
65853;SDS011;52627;48.838;2.402;2024-02-21T04:05:06;13.00;;;7.60;;
65853;SDS011;52627;48.838;2.402;2024-02-21T04:07:38;13.60;;;7.20;;
65853;SDS011;52627;48.838;2.402;2024-02-21T04:10:07;14.60;;;6.70;;
65853;SDS011;52627;48.838;2.402;2024-02-21T04:12:35;15.50;;;6.70;;
65853;SDS011;52627;48.838;2.402;2024-02-21T04:15:02;20.00;;;7.80;;
65853;SDS011;52627;48.838;2.402;2024-02-21T04:17:30;18.40;;;7.20;;
65853;SDS011;52627;48.838;2.402;2024-02-21T04:20:03;19.50;;;7.80;;
65853;SDS011;52627;48.838;2.402;2024-02-21T04:22:33;21.50;;;7.80;;
65853;SDS011;52627;48.838;2.402;2024-02-21T04:25:01;16.20;;;7.40;;
65853;SDS011;52627;48.838;2.402;2024-02-21T04:27:29;20.10;;;7.90;;
65853;SDS011;52627;48.838;2.402;2024-02-21T04:29:56;17.80;;;7.70;;
65853;SDS011;52627;48.838;2.402;2024-02-21T04:32:24;16.80;;;7.20;;
65853;SDS011;52627;48.838;2.402;2024-02-21T04:34:51;13.90;;;7.00;;
65853;SDS011;52627;48.838;2.402;2024-02-21T04:37:20;16.20;;;6.60;;
65853;SDS011;52627;48.838;2.402;2024-02-21T04:39:48;18.40;;;6.90;;
65853;SDS011;52627;48.838;2.402;2024-02-21T04:42:16;17.90;;;7.70;;
65853;SDS011;52627;48.838;2.402;2024-02-21T04:44:44;13.60;;;6.50;;
65853;SDS011;52627;48.838;2.402;2024-02-21T04:47:11;14.90;;;7.20;;
65853;SDS011;52627;48.838;2.402;2024-02-21T04:49:39;13.60;;;7.00;;
65853;SDS011;52627;48.838;2.402;2024-02-21T04:52:07;14.00;;;7.70;;
65853;SDS011;52627;48.838;2.402;2024-02-21T04:54:35;14.40;;;7.00;;
65853;SDS011;52627;48.838;2.402;2024-02-21T04:57:03;15.20;;;6.70;;
65853;SDS011;52627;48.838;2.402;2024-02-21T04:59:31;13.70;;;6.70;;
65853;SDS011;52627;48.838;2.402;2024-02-21T05:01:59;12.50;;;6.40;;
65853;SDS011;52627;48.838;2.402;2024-02-21T05:04:26;15.60;;;7.60;;
65853;SDS011;52627;48.838;2.402;2024-02-21T05:06:54;17.50;;;6.40;;
65853;SDS011;52627;48.838;2.402;2024-02-21T05:09:22;15.90;;;6.60;;
65853;SDS011;52627;48.838;2.402;2024-02-21T05:11:49;12.90;;;6.40;;
65853;SDS011;52627;48.838;2.402;2024-02-21T05:14:17;13.40;;;7.00;;
65853;SDS011;52627;48.838;2.402;2024-02-21T05:16:45;13.10;;;7.00;;
65853;SDS011;52627;48.838;2.402;2024-02-21T05:19:12;16.40;;;7.50;;
65853;SDS011;52627;48.838;2.402;2024-02-21T05:21:40;14.50;;;7.30;;
65853;SDS011;52627;48.838;2.402;2024-02-21T05:24:08;17.10;;;7.10;;
65853;SDS011;52627;48.838;2.402;2024-02-21T05:26:35;18.50;;;6.80;;
65853;SDS011;52627;48.838;2.402;2024-02-21T05:29:02;14.10;;;7.30;;
65853;SDS011;52627;48.838;2.402;2024-02-21T05:34:20;14.70;;;6.30;;
65853;SDS011;52627;48.838;2.402;2024-02-21T05:36:48;12.80;;;7.30;;
65853;SDS011;52627;48.838;2.402;2024-02-21T05:39:17;16.80;;;6.90;;
65853;SDS011;52627;48.838;2.402;2024-02-21T05:41:45;15.90;;;7.40;;
65853;SDS011;52627;48.838;2.402;2024-02-21T05:44:13;16.10;;;7.40;;
65853;SDS011;52627;48.838;2.402;2024-02-21T05:46:40;13.80;;;7.00;;
65853;SDS011;52627;48.838;2.402;2024-02-21T05:49:08;13.50;;;7.10;;
65853;SDS011;52627;48.838;2.402;2024-02-21T05:51:35;16.40;;;6.80;;
65853;SDS011;52627;48.838;2.402;2024-02-21T05:54:03;16.90;;;6.60;;
65853;SDS011;52627;48.838;2.402;2024-02-21T05:56:30;11.00;;;6.20;;
65853;SDS011;52627;48.838;2.402;2024-02-21T05:58:58;14.50;;;6.50;;
65853;SDS011;52627;48.838;2.402;2024-02-21T06:01:25;15.00;;;6.40;;
65853;SDS011;52627;48.838;2.402;2024-02-21T06:03:53;15.50;;;7.10;;
65853;SDS011;52627;48.838;2.402;2024-02-21T06:06:21;14.30;;;6.30;;
65853;SDS011;52627;48.838;2.402;2024-02-21T06:08:49;13.30;;;7.40;;
65853;SDS011;52627;48.838;2.402;2024-02-21T06:11:17;15.90;;;7.10;;
65853;SDS011;52627;48.838;2.402;2024-02-21T06:13:44;14.60;;;6.90;;
65853;SDS011;52627;48.838;2.402;2024-02-21T06:16:12;16.90;;;6.60;;
65853;SDS011;52627;48.838;2.402;2024-02-21T06:18:40;14.90;;;6.80;;
65853;SDS011;52627;48.838;2.402;2024-02-21T06:21:07;15.60;;;6.80;;
65853;SDS011;52627;48.838;2.402;2024-02-21T06:23:36;11.80;;;6.90;;
65853;SDS011;52627;48.838;2.402;2024-02-21T06:26:04;15.50;;;6.50;;
65853;SDS011;52627;48.838;2.402;2024-02-21T06:28:31;16.60;;;7.30;;
65853;SDS011;52627;48.838;2.402;2024-02-21T06:30:59;13.90;;;6.40;;
65853;SDS011;52627;48.838;2.402;2024-02-21T06:33:27;14.70;;;6.60;;
65853;SDS011;52627;48.838;2.402;2024-02-21T06:35:54;15.70;;;6.20;;
65853;SDS011;52627;48.838;2.402;2024-02-21T06:38:22;15.30;;;7.10;;
65853;SDS011;52627;48.838;2.402;2024-02-21T06:40:50;15.20;;;6.40;;
65853;SDS011;52627;48.838;2.402;2024-02-21T06:43:20;14.10;;;6.30;;
65853;SDS011;52627;48.838;2.402;2024-02-21T06:45:48;12.90;;;6.40;;
65853;SDS011;52627;48.838;2.402;2024-02-21T06:48:18;13.30;;;6.30;;
65853;SDS011;52627;48.838;2.402;2024-02-21T06:50:47;15.20;;;5.70;;
65853;SDS011;52627;48.838;2.402;2024-02-21T06:53:14;13.20;;;6.40;;
65853;SDS011;52627;48.838;2.402;2024-02-21T06:55:42;10.90;;;6.10;;
65853;SDS011;52627;48.838;2.402;2024-02-21T06:58:09;12.60;;;6.50;;
65853;SDS011;52627;48.838;2.402;2024-02-21T07:00:39;14.40;;;6.40;;
65853;SDS011;52627;48.838;2.402;2024-02-21T07:03:08;13.00;;;6.00;;
65853;SDS011;52627;48.838;2.402;2024-02-21T07:05:35;13.20;;;6.90;;
65853;SDS011;52627;48.838;2.402;2024-02-21T07:08:03;16.10;;;6.60;;
65853;SDS011;52627;48.838;2.402;2024-02-21T07:10:31;16.50;;;6.10;;
65853;SDS011;52627;48.838;2.402;2024-02-21T07:12:59;16.00;;;5.90;;
65853;SDS011;52627;48.838;2.402;2024-02-21T07:15:27;14.60;;;5.90;;
65853;SDS011;52627;48.838;2.402;2024-02-21T07:17:56;12.00;;;5.30;;
65853;SDS011;52627;48.838;2.402;2024-02-21T07:20:24;13.60;;;6.00;;
65853;SDS011;52627;48.838;2.402;2024-02-21T07:22:52;14.30;;;6.30;;
65853;SDS011;52627;48.838;2.402;2024-02-21T07:25:19;13.40;;;5.80;;
65853;SDS011;52627;48.838;2.402;2024-02-21T07:27:47;11.30;;;5.20;;
65853;SDS011;52627;48.838;2.402;2024-02-21T07:30:14;12.50;;;5.00;;
65853;SDS011;52627;48.838;2.402;2024-02-21T07:32:44;9.80;;;5.60;;
65853;SDS011;52627;48.838;2.402;2024-02-21T07:35:11;12.60;;;5.90;;
65853;SDS011;52627;48.838;2.402;2024-02-21T07:37:40;11.70;;;5.80;;
65853;SDS011;52627;48.838;2.402;2024-02-21T07:40:13;11.80;;;5.20;;
65853;SDS011;52627;48.838;2.402;2024-02-21T07:42:42;12.60;;;5.90;;
65853;SDS011;52627;48.838;2.402;2024-02-21T07:45:15;11.90;;;5.40;;
65853;SDS011;52627;48.838;2.402;2024-02-21T07:47:42;12.70;;;5.60;;
65853;SDS011;52627;48.838;2.402;2024-02-21T07:50:10;12.60;;;5.40;;
65853;SDS011;52627;48.838;2.402;2024-02-21T07:52:37;10.50;;;5.50;;
65853;SDS011;52627;48.838;2.402;2024-02-21T07:55:05;12.60;;;6.00;;
65853;SDS011;52627;48.838;2.402;2024-02-21T07:57:33;10.30;;;5.40;;
65853;SDS011;52627;48.838;2.402;2024-02-21T08:00:00;10.50;;;5.80;;
65853;SDS011;52627;48.838;2.402;2024-02-21T08:02:28;12.10;;;5.90;;
65853;SDS011;52627;48.838;2.402;2024-02-21T08:04:55;13.30;;;6.00;;
65853;SDS011;52627;48.838;2.402;2024-02-21T08:07:23;11.10;;;6.00;;
65853;SDS011;52627;48.838;2.402;2024-02-21T08:09:50;12.20;;;6.00;;
65853;SDS011;52627;48.838;2.402;2024-02-21T08:12:18;10.00;;;5.90;;
65853;SDS011;52627;48.838;2.402;2024-02-21T08:14:45;14.20;;;6.20;;
65853;SDS011;52627;48.838;2.402;2024-02-21T08:17:13;15.70;;;7.50;;
65853;SDS011;52627;48.838;2.402;2024-02-21T08:19:40;12.90;;;6.10;;
65853;SDS011;52627;48.838;2.402;2024-02-21T08:22:08;10.30;;;5.90;;
65853;SDS011;52627;48.838;2.402;2024-02-21T08:24:35;11.40;;;5.50;;
65853;SDS011;52627;48.838;2.402;2024-02-21T08:27:03;12.80;;;5.70;;
65853;SDS011;52627;48.838;2.402;2024-02-21T08:29:31;9.80;;;5.40;;
65853;SDS011;52627;48.838;2.402;2024-02-21T08:31:59;16.10;;;5.90;;
65853;SDS011;52627;48.838;2.402;2024-02-21T08:34:27;10.90;;;5.80;;
65853;SDS011;52627;48.838;2.402;2024-02-21T08:36:57;11.90;;;5.20;;
65853;SDS011;52627;48.838;2.402;2024-02-21T08:39:24;14.50;;;6.10;;
65853;SDS011;52627;48.838;2.402;2024-02-21T08:41:52;13.30;;;5.90;;
65853;SDS011;52627;48.838;2.402;2024-02-21T08:44:24;10.10;;;5.70;;
65853;SDS011;52627;48.838;2.402;2024-02-21T08:46:54;12.20;;;5.70;;
65853;SDS011;52627;48.838;2.402;2024-02-21T08:49:22;13.00;;;5.60;;
65853;SDS011;52627;48.838;2.402;2024-02-21T08:51:50;11.70;;;5.10;;
65853;SDS011;52627;48.838;2.402;2024-02-21T08:54:18;14.70;;;5.80;;
65853;SDS011;52627;48.838;2.402;2024-02-21T08:56:45;14.20;;;5.60;;
65853;SDS011;52627;48.838;2.402;2024-02-21T08:59:13;13.20;;;6.10;;
65853;SDS011;52627;48.838;2.402;2024-02-21T09:01:42;13.30;;;5.90;;
65853;SDS011;52627;48.838;2.402;2024-02-21T09:04:11;12.60;;;5.50;;
65853;SDS011;52627;48.838;2.402;2024-02-21T09:06:39;10.50;;;5.30;;
65853;SDS011;52627;48.838;2.402;2024-02-21T09:09:09;11.50;;;5.40;;
65853;SDS011;52627;48.838;2.402;2024-02-21T09:11:38;12.50;;;5.20;;
65853;SDS011;52627;48.838;2.402;2024-02-21T09:14:06;9.30;;;5.90;;
65853;SDS011;52627;48.838;2.402;2024-02-21T09:16:34;11.40;;;5.60;;
65853;SDS011;52627;48.838;2.402;2024-02-21T09:19:02;13.20;;;5.70;;
65853;SDS011;52627;48.838;2.402;2024-02-21T09:21:29;12.10;;;5.40;;
65853;SDS011;52627;48.838;2.402;2024-02-21T09:23:57;11.20;;;5.40;;
65853;SDS011;52627;48.838;2.402;2024-02-21T09:26:26;16.50;;;5.80;;
65853;SDS011;52627;48.838;2.402;2024-02-21T09:28:54;12.80;;;5.70;;
65853;SDS011;52627;48.838;2.402;2024-02-21T09:31:22;11.60;;;5.80;;
65853;SDS011;52627;48.838;2.402;2024-02-21T09:33:49;11.80;;;5.40;;
65853;SDS011;52627;48.838;2.402;2024-02-21T09:36:17;11.20;;;5.10;;
65853;SDS011;52627;48.838;2.402;2024-02-21T09:38:45;10.00;;;5.10;;
65853;SDS011;52627;48.838;2.402;2024-02-21T09:41:16;12.50;;;5.70;;
65853;SDS011;52627;48.838;2.402;2024-02-21T09:43:52;10.40;;;5.10;;
65853;SDS011;52627;48.838;2.402;2024-02-21T09:46:45;11.60;;;5.40;;
65853;SDS011;52627;48.838;2.402;2024-02-21T09:49:32;13.10;;;5.20;;
65853;SDS011;52627;48.838;2.402;2024-02-21T09:54:30;14.30;;;5.30;;
65853;SDS011;52627;48.838;2.402;2024-02-21T09:57:01;10.00;;;5.10;;
65853;SDS011;52627;48.838;2.402;2024-02-21T09:59:32;14.10;;;5.50;;
65853;SDS011;52627;48.838;2.402;2024-02-21T10:02:00;10.70;;;5.10;;
65853;SDS011;52627;48.838;2.402;2024-02-21T10:04:29;22.70;;;5.30;;
65853;SDS011;52627;48.838;2.402;2024-02-21T10:06:58;8.80;;;4.70;;
65853;SDS011;52627;48.838;2.402;2024-02-21T10:09:26;11.10;;;5.10;;
65853;SDS011;52627;48.838;2.402;2024-02-21T10:12:07;11.50;;;5.90;;
65853;SDS011;52627;48.838;2.402;2024-02-21T10:14:37;11.50;;;5.10;;
65853;SDS011;52627;48.838;2.402;2024-02-21T10:17:05;12.40;;;5.00;;
65853;SDS011;52627;48.838;2.402;2024-02-21T10:19:38;10.90;;;5.10;;
65853;SDS011;52627;48.838;2.402;2024-02-21T10:22:08;14.20;;;5.30;;
65853;SDS011;52627;48.838;2.402;2024-02-21T10:24:37;12.10;;;4.70;;
65853;SDS011;52627;48.838;2.402;2024-02-21T10:27:07;12.10;;;5.00;;
65853;SDS011;52627;48.838;2.402;2024-02-21T10:29:36;12.20;;;4.90;;
65853;SDS011;52627;48.838;2.402;2024-02-21T10:32:09;9.20;;;4.50;;
65853;SDS011;52627;48.838;2.402;2024-02-21T10:34:41;20.00;;;6.00;;
65853;SDS011;52627;48.838;2.402;2024-02-21T10:37:11;8.90;;;4.20;;
65853;SDS011;52627;48.838;2.402;2024-02-21T10:39:41;10.40;;;4.80;;
65853;SDS011;52627;48.838;2.402;2024-02-21T10:42:13;9.10;;;4.40;;
65853;SDS011;52627;48.838;2.402;2024-02-21T10:44:41;9.30;;;4.60;;
65853;SDS011;52627;48.838;2.402;2024-02-21T10:47:11;10.10;;;4.60;;
65853;SDS011;52627;48.838;2.402;2024-02-21T10:49:41;10.80;;;4.80;;
65853;SDS011;52627;48.838;2.402;2024-02-21T10:55:06;9.70;;;4.60;;
65853;SDS011;52627;48.838;2.402;2024-02-21T10:57:38;8.10;;;4.80;;
65853;SDS011;52627;48.838;2.402;2024-02-21T11:00:06;8.10;;;4.40;;
65853;SDS011;52627;48.838;2.402;2024-02-21T11:02:35;9.30;;;4.80;;
65853;SDS011;52627;48.838;2.402;2024-02-21T11:05:04;9.70;;;4.60;;
65853;SDS011;52627;48.838;2.402;2024-02-21T11:07:35;10.20;;;3.90;;
65853;SDS011;52627;48.838;2.402;2024-02-21T11:10:04;11.00;;;4.50;;
65853;SDS011;52627;48.838;2.402;2024-02-21T11:12:34;7.90;;;4.30;;
65853;SDS011;52627;48.838;2.402;2024-02-21T11:15:05;9.60;;;4.60;;
65853;SDS011;52627;48.838;2.402;2024-02-21T11:17:33;10.40;;;4.50;;
65853;SDS011;52627;48.838;2.402;2024-02-21T11:20:13;10.50;;;4.30;;
65853;SDS011;52627;48.838;2.402;2024-02-21T11:22:42;9.10;;;3.90;;
65853;SDS011;52627;48.838;2.402;2024-02-21T11:25:10;9.40;;;4.00;;
65853;SDS011;52627;48.838;2.402;2024-02-21T11:27:47;8.10;;;4.60;;
65853;SDS011;52627;48.838;2.402;2024-02-21T11:30:14;8.80;;;4.70;;
65853;SDS011;52627;48.838;2.402;2024-02-21T11:32:43;10.10;;;4.50;;
65853;SDS011;52627;48.838;2.402;2024-02-21T11:35:19;13.00;;;4.60;;
65853;SDS011;52627;48.838;2.402;2024-02-21T11:37:47;12.10;;;4.90;;
65853;SDS011;52627;48.838;2.402;2024-02-21T11:40:15;10.10;;;4.90;;
65853;SDS011;52627;48.838;2.402;2024-02-21T11:42:42;10.40;;;5.00;;
65853;SDS011;52627;48.838;2.402;2024-02-21T11:45:10;12.20;;;4.60;;
65853;SDS011;52627;48.838;2.402;2024-02-21T11:47:37;8.50;;;3.80;;
65853;SDS011;52627;48.838;2.402;2024-02-21T11:50:10;9.30;;;4.30;;
65853;SDS011;52627;48.838;2.402;2024-02-21T11:52:40;8.30;;;3.90;;
65853;SDS011;52627;48.838;2.402;2024-02-21T11:55:07;10.70;;;4.30;;
65853;SDS011;52627;48.838;2.402;2024-02-21T11:57:39;8.80;;;3.90;;
65853;SDS011;52627;48.838;2.402;2024-02-21T12:00:16;9.90;;;4.80;;
65853;SDS011;52627;48.838;2.402;2024-02-21T12:02:45;8.60;;;4.00;;
65853;SDS011;52627;48.838;2.402;2024-02-21T12:05:14;11.50;;;3.90;;
65853;SDS011;52627;48.838;2.402;2024-02-21T12:07:42;7.70;;;3.90;;
65853;SDS011;52627;48.838;2.402;2024-02-21T12:10:10;12.10;;;4.60;;
65853;SDS011;52627;48.838;2.402;2024-02-21T12:12:39;7.70;;;3.80;;
65853;SDS011;52627;48.838;2.402;2024-02-21T12:15:07;7.00;;;3.60;;
65853;SDS011;52627;48.838;2.402;2024-02-21T12:17:36;8.90;;;3.80;;
65853;SDS011;52627;48.838;2.402;2024-02-21T12:20:05;9.50;;;3.80;;
65853;SDS011;52627;48.838;2.402;2024-02-21T12:22:43;11.90;;;3.60;;
65853;SDS011;52627;48.838;2.402;2024-02-21T12:25:22;7.50;;;3.70;;
65853;SDS011;52627;48.838;2.402;2024-02-21T12:27:54;9.00;;;4.10;;
65853;SDS011;52627;48.838;2.402;2024-02-21T12:30:23;6.50;;;3.70;;
65853;SDS011;52627;48.838;2.402;2024-02-21T12:32:50;7.30;;;3.80;;
65853;SDS011;52627;48.838;2.402;2024-02-21T12:35:18;9.10;;;4.50;;
65853;SDS011;52627;48.838;2.402;2024-02-21T12:37:46;9.90;;;3.70;;
65853;SDS011;52627;48.838;2.402;2024-02-21T12:40:14;13.00;;;3.90;;
65853;SDS011;52627;48.838;2.402;2024-02-21T12:42:43;8.20;;;3.30;;
65853;SDS011;52627;48.838;2.402;2024-02-21T12:45:10;6.20;;;3.20;;
65853;SDS011;52627;48.838;2.402;2024-02-21T12:47:38;7.40;;;3.50;;
65853;SDS011;52627;48.838;2.402;2024-02-21T12:50:07;8.60;;;3.30;;
65853;SDS011;52627;48.838;2.402;2024-02-21T12:52:36;9.80;;;3.60;;
65853;SDS011;52627;48.838;2.402;2024-02-21T12:55:04;10.50;;;3.90;;
65853;SDS011;52627;48.838;2.402;2024-02-21T12:57:32;6.70;;;3.40;;
65853;SDS011;52627;48.838;2.402;2024-02-21T12:59:59;10.80;;;3.50;;
65853;SDS011;52627;48.838;2.402;2024-02-21T13:02:27;7.30;;;3.40;;
65853;SDS011;52627;48.838;2.402;2024-02-21T13:04:55;10.20;;;3.60;;
65853;SDS011;52627;48.838;2.402;2024-02-21T13:07:23;8.90;;;3.60;;
65853;SDS011;52627;48.838;2.402;2024-02-21T13:09:50;9.10;;;3.50;;
65853;SDS011;52627;48.838;2.402;2024-02-21T13:12:18;9.30;;;4.00;;
65853;SDS011;52627;48.838;2.402;2024-02-21T13:14:45;6.60;;;3.40;;
65853;SDS011;52627;48.838;2.402;2024-02-21T13:17:13;9.70;;;4.30;;
65853;SDS011;52627;48.838;2.402;2024-02-21T13:19:42;10.80;;;3.70;;
65853;SDS011;52627;48.838;2.402;2024-02-21T13:22:10;8.20;;;3.60;;
65853;SDS011;52627;48.838;2.402;2024-02-21T13:24:38;8.30;;;3.60;;
65853;SDS011;52627;48.838;2.402;2024-02-21T13:27:05;7.70;;;4.00;;
65853;SDS011;52627;48.838;2.402;2024-02-21T13:29:33;7.50;;;3.60;;
65853;SDS011;52627;48.838;2.402;2024-02-21T13:32:01;8.00;;;4.00;;
65853;SDS011;52627;48.838;2.402;2024-02-21T13:34:29;10.30;;;4.40;;
65853;SDS011;52627;48.838;2.402;2024-02-21T13:36:57;9.80;;;4.20;;
65853;SDS011;52627;48.838;2.402;2024-02-21T13:39:26;11.40;;;4.60;;
65853;SDS011;52627;48.838;2.402;2024-02-21T13:41:54;9.80;;;4.00;;
65853;SDS011;52627;48.838;2.402;2024-02-21T13:44:21;10.60;;;4.30;;
65853;SDS011;52627;48.838;2.402;2024-02-21T13:46:49;8.50;;;4.50;;
65853;SDS011;52627;48.838;2.402;2024-02-21T13:49:16;8.30;;;3.90;;
65853;SDS011;52627;48.838;2.402;2024-02-21T13:51:44;10.40;;;3.90;;
65853;SDS011;52627;48.838;2.402;2024-02-21T13:54:13;9.60;;;4.70;;
65853;SDS011;52627;48.838;2.402;2024-02-21T13:59:12;8.90;;;4.80;;
65853;SDS011;52627;48.838;2.402;2024-02-21T14:01:43;10.20;;;5.00;;
65853;SDS011;52627;48.838;2.402;2024-02-21T14:04:11;8.20;;;4.50;;
65853;SDS011;52627;48.838;2.402;2024-02-21T14:06:39;8.70;;;4.70;;
65853;SDS011;52627;48.838;2.402;2024-02-21T14:09:12;8.50;;;4.50;;
65853;SDS011;52627;48.838;2.402;2024-02-21T14:11:40;13.20;;;5.40;;
65853;SDS011;52627;48.838;2.402;2024-02-21T14:14:10;13.10;;;6.30;;
65853;SDS011;52627;48.838;2.402;2024-02-21T14:16:37;10.90;;;6.10;;
65853;SDS011;52627;48.838;2.402;2024-02-21T14:19:05;8.90;;;5.20;;
65853;SDS011;52627;48.838;2.402;2024-02-21T14:21:34;11.40;;;5.50;;
65853;SDS011;52627;48.838;2.402;2024-02-21T14:24:05;11.20;;;4.70;;
65853;SDS011;52627;48.838;2.402;2024-02-21T14:26:33;13.00;;;5.00;;
65853;SDS011;52627;48.838;2.402;2024-02-21T14:29:03;10.70;;;5.60;;
65853;SDS011;52627;48.838;2.402;2024-02-21T14:31:34;10.90;;;5.20;;
65853;SDS011;52627;48.838;2.402;2024-02-21T14:34:03;9.20;;;4.90;;
65853;SDS011;52627;48.838;2.402;2024-02-21T14:36:37;13.70;;;6.10;;
65853;SDS011;52627;48.838;2.402;2024-02-21T14:39:08;11.90;;;5.80;;
65853;SDS011;52627;48.838;2.402;2024-02-21T14:41:37;10.80;;;5.50;;
65853;SDS011;52627;48.838;2.402;2024-02-21T14:44:14;11.70;;;5.20;;
65853;SDS011;52627;48.838;2.402;2024-02-21T14:46:42;10.80;;;6.00;;
65853;SDS011;52627;48.838;2.402;2024-02-21T14:49:10;12.40;;;5.90;;
65853;SDS011;52627;48.838;2.402;2024-02-21T14:51:38;9.30;;;5.50;;
65853;SDS011;52627;48.838;2.402;2024-02-21T14:54:06;14.80;;;5.70;;